Time;durP1;ratioP1;P1;durP2;ratioP2;P2;SDS_P1;SDS_P2;PMS_P1;PMS_P2;Temp;Humidity;BMP_temperature;BMP_pressure;BME280_temperature;BME280_humidity;BME280_pressure;Samples;Min_cycle;Max_cycle;Signal;HPM_P1;HPM_P2
2023/03/22 00:47:36;;;;;;;0.93;0.93;;;;;;;;;;7373421;19;20204;-96
2023/03/22 00:50:10;;;;;;;0.67;0.67;;;;;;;;;;7433001;19;20168;-96
2023/03/22 00:52:40;;;;;;;0.33;0.33;;;;;;;;;;7433547;19;20176;-96
2023/03/22 00:55:11;;;;;;;0.50;0.50;;;;;;;;;;7434411;19;20144;-96
2023/03/22 08:04:34;;;;;;;0.40;0.40;;;;;;;;;;7403519;19;20169;-90
2023/03/22 08:07:01;;;;;;;0.93;0.93;;;;;;;;;;7400198;19;20141;-90
2023/03/22 08:09:28;;;;;;;0.50;0.50;;;;;;;;;;7397448;19;20204;-88
2023/03/22 08:11:54;;;;;;;0.40;0.40;;;;;;;;;;7401838;19;20144;-89
2023/03/22 08:14:21;;;;;;;0.43;0.43;;;;;;;;;;7402646;19;20145;-90
2023/03/22 08:17:01;;;;;;;0.40;0.40;;;;;;;;;;7417882;19;20144;-91
2023/03/22 08:19:27;;;;;;;0.30;0.30;;;;;;;;;;7428079;19;20161;-92
2023/03/22 08:21:54;;;;;;;0.30;0.30;;;;;;;;;;7429634;19;20176;-91
2023/03/22 08:24:20;;;;;;;0.50;0.50;;;;;;;;;;7429155;19;20153;-89
2023/03/22 08:26:48;;;;;;;0.40;0.40;;;;;;;;;;7406718;19;20483;-88
2023/03/22 08:29:15;;;;;;;0.50;0.50;;;;;;;;;;7401225;19;20530;-91
2023/03/22 08:31:42;;;;;;;0.40;0.40;;;;;;;;;;7400935;19;20160;-88
2023/03/22 08:34:08;;;;;;;0.50;0.50;;;;;;;;;;7404163;19;20145;-89
2023/03/22 08:36:37;;;;;;;0.47;0.47;;;;;;;;;;7399921;19;20629;-90
2023/03/22 08:39:04;;;;;;;0.57;0.57;;;;;;;;;;7399185;19;20164;-90
2023/03/22 08:41:30;;;;;;;2.77;0.67;;;;;;;;;;7400453;19;20528;-89
2023/03/22 08:43:57;;;;;;;0.33;0.33;;;;;;;;;;7402181;19;20164;-90
2023/03/22 08:46:24;;;;;;;0.40;0.40;;;;;;;;;;7400641;19;20143;-90
2023/03/22 08:48:50;;;;;;;0.67;0.67;;;;;;;;;;7401563;19;20193;-88
2023/03/22 08:51:18;;;;;;;1.17;1.13;;;;;;;;;;7404128;19;20157;-91
2023/03/22 08:53:48;;;;;;;0.70;0.70;;;;;;;;;;7403241;19;20526;-89
2023/03/22 08:56:18;;;;;;;0.60;0.60;;;;;;;;;;7401319;19;20132;-90
2023/03/22 08:58:45;;;;;;;0.63;0.63;;;;;;;;;;7402181;19;20523;-85
2023/03/22 09:01:13;;;;;;;0.50;0.50;;;;;;;;;;7406387;19;20172;-85
2023/03/22 09:03:46;;;;;;;0.50;0.50;;;;;;;;;;7405537;19;20596;-86
2023/03/22 09:06:16;;;;;;;0.77;0.77;;;;;;;;;;7404702;19;20143;-88
2023/03/22 09:08:43;;;;;;;0.50;0.50;;;;;;;;;;7401174;19;20175;-88
2023/03/22 09:11:10;;;;;;;0.67;0.67;;;;;;;;;;7401510;19;20160;-87
2023/03/22 09:13:37;;;;;;;0.43;0.43;;;;;;;;;;7405116;19;20133;-88
2023/03/22 09:16:05;;;;;;;0.87;0.87;;;;;;;;;;7403864;19;20201;-87
2023/03/22 09:18:32;;;;;;;0.80;0.80;;;;;;;;;;7402286;19;20156;-90
2023/03/22 09:20:58;;;;;;;0.60;0.60;;;;;;;;;;7407089;19;20121;-86
2023/03/22 09:23:25;;;;;;;0.33;0.33;;;;;;;;;;7404491;19;20547;-87
2023/03/22 09:25:52;;;;;;;0.50;0.50;;;;;;;;;;7402227;19;20137;-90
2023/03/22 09:28:19;;;;;;;0.40;0.40;;;;;;;;;;7400921;19;20141;-87
2023/03/22 09:30:47;;;;;;;0.50;0.50;;;;;;;;;;7401928;19;20539;-86
2023/03/22 09:33:13;;;;;;;0.80;0.80;;;;;;;;;;7400901;19;20133;-88
2023/03/22 09:35:41;;;;;;;0.87;0.87;;;;;;;;;;7400212;19;20499;-92
2023/03/22 09:38:11;;;;;;;0.47;0.47;;;;;;;;;;7401401;19;20164;-85
2023/03/22 09:40:50;;;;;;;0.50;0.50;;;;;;;;;;7400942;19;20478;-89
2023/03/22 09:43:18;;;;;;;1.43;0.70;;;;;;;;;;7397084;19;20605;-84
2023/03/22 09:45:47;;;;;;;0.40;0.40;;;;;;;;;;7403108;19;20141;-86
2023/03/22 09:48:21;;;;;;;0.40;0.40;;;;;;;;;;7400964;19;20172;-86
2023/03/22 09:50:53;;;;;;;0.60;0.60;;;;;;;;;;7398855;19;20476;-86
2023/03/22 09:53:22;;;;;;;0.50;0.50;;;;;;;;;;7396905;19;20640;-85
2023/03/22 09:56:00;;;;;;;0.40;0.40;;;;;;;;;;7402177;19;20141;-88
2023/03/22 09:59:01;;;;;;;0.50;0.50;;;;;;;;;;7401844;19;20172;-87
2023/03/22 10:01:44;;;;;;;0.63;0.63;;;;;;;;;;7402923;19;20140;-85
2023/03/22 10:04:33;;;;;;;0.60;0.60;;;;;;;;;;7399403;19;20161;-90
2023/03/22 10:07:17;;;;;;;0.30;0.30;;;;;;;;;;7398312;19;20136;-90
2023/03/22 10:09:56;;;;;;;0.60;0.60;;;;;;;;;;7392668;19;20160;-90
2023/03/22 10:12:27;;;;;;;0.40;0.40;;;;;;;;;;7393935;19;20143;-91
2023/03/22 10:15:20;;;;;;;0.70;0.70;;;;;;;;;;7393855;19;20621;-90
2023/03/22 10:17:51;;;;;;;0.53;0.53;;;;;;;;;;7393160;19;20129;-89
2023/03/22 10:20:25;;;;;;;0.43;0.43;;;;;;;;;;7395506;19;20140;-91
2023/03/22 10:22:55;;;;;;;0.43;0.43;;;;;;;;;;7394953;19;20151;-87
2023/03/22 10:25:30;;;;;;;0.30;0.30;;;;;;;;;;7394277;19;20125;-90
2023/03/22 10:27:56;;;;;;;0.30;0.30;;;;;;;;;;7394321;19;20164;-89
2023/03/22 10:30:27;;;;;;;0.40;0.40;;;;;;;;;;7395963;19;20140;-90
2023/03/22 10:32:55;;;;;;;0.57;0.57;;;;;;;;;;7394673;19;20140;-89
2023/03/22 10:35:24;;;;;;;0.73;0.73;;;;;;;;;;7399347;19;20125;-90
2023/03/22 10:37:51;;;;;;;0.50;0.50;;;;;;;;;;7398177;19;20171;-90
2023/03/22 10:40:39;;;;;;;0.50;0.50;;;;;;;;;;7396983;19;20472;-88
2023/03/22 10:43:32;;;;;;;0.30;0.30;;;;;;;;;;7397634;19;20170;-88
2023/03/22 10:46:02;;;;;;;0.52;0.52;;;;;;;;;;7399259;19;20144;-89
2023/03/22 10:48:31;;;;;;;0.57;0.57;;;;;;;;;;7397473;19;20164;-90
2023/03/22 10:50:59;;;;;;;0.77;0.77;;;;;;;;;;7401355;19;20613;-89
2023/03/22 10:53:36;;;;;;;0.40;0.40;;;;;;;;;;7401147;19;20125;-88
2023/03/22 10:56:04;;;;;;;0.30;0.30;;;;;;;;;;7393493;19;20593;-90
2023/03/22 10:58:32;;;;;;;0.30;0.30;;;;;;;;;;7394015;19;20149;-91
2023/03/22 11:01:12;;;;;;;0.40;0.40;;;;;;;;;;7397479;19;20617;-90
2023/03/22 11:03:45;;;;;;;0.40;0.40;;;;;;;;;;7395408;19;20133;-91
2023/03/22 11:06:23;;;;;;;2.78;0.60;;;;;;;;;;7395713;19;20482;-91
2023/03/22 11:08:51;;;;;;;0.40;0.40;;;;;;;;;;7395849;19;20206;-91
2023/03/22 11:11:33;;;;;;;0.30;0.30;;;;;;;;;;7397179;19;20149;-92
2023/03/22 11:14:12;;;;;;;0.73;0.73;;;;;;;;;;7398616;19;20160;-91
2023/03/22 11:16:54;;;;;;;0.65;0.65;;;;;;;;;;7397495;19;20149;-92
2023/03/22 11:19:38;;;;;;;0.30;0.30;;;;;;;;;;7398398;19;20661;-92
2023/03/22 11:22:28;;;;;;;0.50;0.50;;;;;;;;;;7401812;19;20149;-95
2023/03/22 11:24:55;;;;;;;0.50;0.50;;;;;;;;;;7397755;19;20165;-91
2023/03/22 11:27:31;;;;;;;0.30;0.30;;;;;;;;;;7397938;19;20149;-92
2023/03/22 11:30:43;;;;;;;0.40;0.40;;;;;;;;;;7398655;19;20136;-90
2023/03/22 11:33:20;;;;;;;0.60;0.60;;;;;;;;;;7397473;19;20153;-91
2023/03/22 11:36:18;;;;;;;1.65;0.40;;;;;;;;;;7398900;19;20141;-91
2023/03/22 11:43:22;;;;;;;0.40;0.40;;;;;;;;;;7395594;19;20155;-91
2023/03/22 11:46:05;;;;;;;0.50;0.50;;;;;;;;;;7402067;19;20143;-91
2023/03/22 11:48:45;;;;;;;0.50;0.50;;;;;;;;;;7396162;19;20153;-91
2023/03/22 11:51:34;;;;;;;2.58;0.75;;;;;;;;;;7396538;19;20156;-90
2023/03/22 11:54:47;;;;;;;;;;;;;;;;;;;;;
2023/03/22 11:57:41;;;;;;;0.45;0.45;;;;;;;;;;7395367;19;20148;-91
2023/03/22 12:00:18;;;;;;;0.57;0.57;;;;;;;;;;7397985;19;20145;-91
2023/03/22 12:02:54;;;;;;;0.40;0.40;;;;;;;;;;7396504;19;20149;-92
2023/03/22 12:05:28;;;;;;;0.32;0.32;;;;;;;;;;7397924;19;20156;-92
2023/03/22 12:08:02;;;;;;;0.50;0.50;;;;;;;;;;7395528;19;20534;-89
2023/03/22 12:10:38;;;;;;;0.52;0.52;;;;;;;;;;7396153;19;20140;-88
2023/03/22 12:13:16;;;;;;;0.50;0.50;;;;;;;;;;7394996;19;20150;-88
2023/03/22 12:15:47;;;;;;;0.35;0.32;;;;;;;;;;7399568;19;20615;-88
2023/03/22 12:18:28;;;;;;;0.30;0.30;;;;;;;;;;7404013;19;20180;-91
2023/03/22 12:20:59;;;;;;;0.30;0.30;;;;;;;;;;7404152;19;20153;-88
2023/03/22 12:23:29;;;;;;;0.57;0.57;;;;;;;;;;7401964;19;20578;-89
2023/03/22 12:26:03;;;;;;;0.40;0.40;;;;;;;;;;7396332;19;20608;-90
2023/03/22 12:28:58;;;;;;;0.50;0.50;;;;;;;;;;7394980;19;20651;-90
2023/03/22 12:31:38;;;;;;;0.40;0.40;;;;;;;;;;7399267;19;20145;-90
2023/03/22 12:34:32;;;;;;;0.38;0.38;;;;;;;;;;7402742;19;20613;-89
2023/03/22 12:37:00;;;;;;;0.20;0.20;;;;;;;;;;7400499;19;20148;-88
2023/03/22 12:39:36;;;;;;;0.30;0.30;;;;;;;;;;7399358;19;20203;-88
2023/03/22 12:42:12;;;;;;;0.75;0.70;;;;;;;;;;7399553;19;20148;-89
2023/03/22 12:44:42;;;;;;;0.30;0.30;;;;;;;;;;7401337;19;20179;-88
2023/03/22 12:47:19;;;;;;;1.67;0.95;;;;;;;;;;7402312;19;20147;-89
2023/03/22 12:49:54;;;;;;;0.45;0.45;;;;;;;;;;7403639;19;20177;-88
2023/03/22 12:52:32;;;;;;;0.30;0.30;;;;;;;;;;7403721;19;20160;-90
2023/03/22 12:55:21;;;;;;;0.57;0.57;;;;;;;;;;7402822;19;20488;-89
2023/03/22 12:57:51;;;;;;;0.30;0.30;;;;;;;;;;7396776;19;20176;-90
2023/03/22 13:00:18;;;;;;;0.32;0.32;;;;;;;;;;7402717;19;20237;-88
2023/03/22 13:02:54;;;;;;;0.30;0.30;;;;;;;;;;7398110;19;20149;-89
2023/03/22 13:05:26;;;;;;;0.55;0.55;;;;;;;;;;7397588;19;20136;-89
2023/03/22 13:07:54;;;;;;;0.50;0.50;;;;;;;;;;7388343;19;20196;-89
2023/03/22 13:10:30;;;;;;;0.40;0.40;;;;;;;;;;7397452;19;20156;-89
2023/03/22 13:13:15;;;;;;;0.40;0.40;;;;;;;;;;7396143;19;20582;-89
2023/03/22 13:16:08;;;;;;;0.40;0.40;;;;;;;;;;7399772;19;20152;-89
2023/03/22 13:18:35;;;;;;;0.60;0.60;;;;;;;;;;7399138;19;20177;-89
2023/03/22 13:21:21;;;;;;;0.73;0.73;;;;;;;;;;7391180;19;20147;-89
2023/03/22 13:24:04;;;;;;;0.95;0.60;;;;;;;;;;7395676;19;20141;-90
2023/03/22 13:26:36;;;;;;;0.38;0.38;;;;;;;;;;7399798;19;20192;-88
2023/03/22 13:29:32;;;;;;;0.30;0.30;;;;;;;;;;7393329;19;20169;-88
2023/03/22 13:31:58;;;;;;;0.50;0.50;;;;;;;;;;7396528;19;20153;-89
2023/03/22 13:34:39;;;;;;;0.40;0.40;;;;;;;;;;7389224;19;20515;-89
2023/03/22 13:37:16;;;;;;;0.63;0.63;;;;;;;;;;7395802;19;20542;-88
2023/03/22 13:39:50;;;;;;;0.43;0.43;;;;;;;;;;7391583;19;20170;-88
2023/03/22 13:42:20;;;;;;;0.50;0.50;;;;;;;;;;7391694;19;20140;-88
2023/03/22 13:45:02;;;;;;;0.45;0.45;;;;;;;;;;7393593;19;20169;-91
2023/03/22 13:47:43;;;;;;;10.30;0.60;;;;;;;;;;7395269;19;20144;-89
2023/03/22 13:50:27;;;;;;;0.50;0.50;;;;;;;;;;7397058;19;20147;-89
2023/03/22 13:53:00;;;;;;;0.40;0.40;;;;;;;;;;7390825;19;20173;-89
2023/03/22 13:55:53;;;;;;;0.30;0.30;;;;;;;;;;7390324;19;20148;-88
2023/03/22 13:58:28;;;;;;;0.30;0.30;;;;;;;;;;7399620;19;20830;-89
2023/03/22 14:00:56;;;;;;;0.40;0.40;;;;;;;;;;7411064;19;20128;-89
2023/03/22 14:03:27;;;;;;;0.40;0.40;;;;;;;;;;7424219;19;20129;-90
2023/03/22 14:06:04;;;;;;;0.40;0.40;;;;;;;;;;7425903;19;20184;-90
2023/03/22 14:08:33;;;;;;;0.40;0.40;;;;;;;;;;7425934;19;20152;-90
2023/03/22 14:11:10;;;;;;;0.93;0.80;;;;;;;;;;7408843;19;20151;-89
2023/03/22 14:13:42;;;;;;;0.50;0.50;;;;;;;;;;7401049;19;20539;-89
2023/03/22 14:16:15;;;;;;;0.98;0.50;;;;;;;;;;7396870;19;20487;-89
2023/03/22 14:18:43;;;;;;;0.52;0.52;;;;;;;;;;7398405;19;20636;-87
2023/03/22 14:21:18;;;;;;;0.38;0.38;;;;;;;;;;7399081;19;20147;-88
2023/03/22 14:23:47;;;;;;;0.40;0.40;;;;;;;;;;7401356;19;20144;-89
2023/03/22 14:26:41;;;;;;;0.50;0.50;;;;;;;;;;7399380;19;20130;-89
2023/03/22 14:29:16;;;;;;;0.50;0.50;;;;;;;;;;7396427;19;20165;-89
2023/03/22 14:31:42;;;;;;;0.40;0.40;;;;;;;;;;7400091;19;20144;-89
2023/03/22 14:34:12;;;;;;;0.68;0.68;;;;;;;;;;7397380;19;20715;-89
2023/03/22 14:36:40;;;;;;;0.32;0.32;;;;;;;;;;7400020;19;20137;-89
2023/03/22 14:39:39;;;;;;;0.30;0.30;;;;;;;;;;7396783;19;20152;-90
2023/03/22 14:42:06;;;;;;;0.60;0.60;;;;;;;;;;7397062;19;20156;-89
2023/03/22 14:44:40;;;;;;;0.30;0.30;;;;;;;;;;7400253;19;20133;-89
2023/03/22 14:47:32;;;;;;;0.30;0.30;;;;;;;;;;7400607;19;20121;-90
2023/03/22 14:50:04;;;;;;;0.30;0.30;;;;;;;;;;7400111;19;20155;-89
2023/03/22 14:52:32;;;;;;;0.50;0.50;;;;;;;;;;7402904;19;20142;-89
2023/03/22 14:55:02;;;;;;;0.85;0.60;;;;;;;;;;7404634;19;20132;-88
2023/03/22 14:57:31;;;;;;;0.50;0.50;;;;;;;;;;7403639;19;20157;-88
2023/03/22 15:00:14;;;;;;;0.30;0.30;;;;;;;;;;7400019;19;20137;-88
2023/03/22 15:02:42;;;;;;;0.30;0.30;;;;;;;;;;7397325;19;20141;-88
2023/03/22 15:05:17;;;;;;;0.40;0.40;;;;;;;;;;7397240;19;20145;-88
2023/03/22 15:07:46;;;;;;;0.60;0.60;;;;;;;;;;7396630;19;20164;-88
2023/03/22 15:10:17;;;;;;;0.40;0.40;;;;;;;;;;7398069;19;20496;-88
2023/03/22 15:12:44;;;;;;;0.30;0.30;;;;;;;;;;7391469;19;20148;-88
2023/03/22 15:15:12;;;;;;;0.30;0.30;;;;;;;;;;7394334;19;20176;-88
2023/03/22 15:17:41;;;;;;;0.95;0.88;;;;;;;;;;7399426;19;20145;-91
2023/03/22 15:20:12;;;;;;;0.55;0.55;;;;;;;;;;7426924;19;20160;-91
2023/03/22 15:22:39;;;;;;;0.40;0.40;;;;;;;;;;7426538;19;20163;-91
2023/03/22 15:25:11;;;;;;;0.30;0.30;;;;;;;;;;7426413;19;20145;-91
2023/03/22 15:27:38;;;;;;;0.65;0.65;;;;;;;;;;7419359;19;20142;-91
2023/03/22 15:30:10;;;;;;;0.52;0.52;;;;;;;;;;7427477;19;20145;-91
2023/03/22 15:32:41;;;;;;;0.68;0.68;;;;;;;;;;7425854;19;20157;-91
2023/03/22 15:35:12;;;;;;;0.40;0.40;;;;;;;;;;7426636;19;20169;-91
2023/03/22 15:37:40;;;;;;;1.05;0.45;;;;;;;;;;7410362;19;20571;-89
2023/03/22 15:40:35;;;;;;;0.40;0.40;;;;;;;;;;7403781;19;20168;-88
2023/03/22 15:43:09;;;;;;;0.47;0.40;;;;;;;;;;7398223;19;20149;-90
2023/03/22 15:45:36;;;;;;;0.40;0.40;;;;;;;;;;7400338;19;20148;-89
2023/03/22 15:48:16;;;;;;;0.75;0.75;;;;;;;;;;7394314;19;20149;-89
2023/03/22 15:50:48;;;;;;;0.32;0.32;;;;;;;;;;7394420;19;20132;-90
2023/03/22 15:53:41;;;;;;;0.52;0.52;;;;;;;;;;7400937;19;20181;-91
2023/03/22 15:56:26;;;;;;;0.40;0.40;;;;;;;;;;7405396;19;20153;-89
2023/03/22 15:59:01;;;;;;;0.30;0.30;;;;;;;;;;7400579;19;20636;-90
2023/03/22 16:01:34;;;;;;;1.10;1.02;;;;;;;;;;7399539;19;20149;-90
2023/03/22 16:04:11;;;;;;;0.68;0.60;;;;;;;;;;7399781;19;20481;-89
2023/03/22 16:06:38;;;;;;;0.40;0.40;;;;;;;;;;7398982;19;20561;-89
2023/03/22 16:09:04;;;;;;;0.30;0.30;;;;;;;;;;7398042;19;20543;-90
2023/03/22 16:11:31;;;;;;;0.40;0.40;;;;;;;;;;7399764;19;20148;-89
2023/03/22 16:13:57;;;;;;;0.30;0.30;;;;;;;;;;7403113;19;20137;-89
2023/03/22 16:16:24;;;;;;;0.30;0.30;;;;;;;;;;7401819;19;20137;-90
2023/03/22 16:18:52;;;;;;;0.40;0.40;;;;;;;;;;7401137;19;20159;-90
2023/03/22 16:21:26;;;;;;;0.47;0.47;;;;;;;;;;7404914;19;20237;-90
2023/03/22 16:23:52;;;;;;;0.40;0.40;;;;;;;;;;7404437;19;20169;-88
2023/03/22 16:26:19;;;;;;;0.35;0.35;;;;;;;;;;7402921;19;20137;-89
2023/03/22 16:28:45;;;;;;;0.52;0.47;;;;;;;;;;7398232;19;20181;-89
2023/03/22 16:31:15;;;;;;;0.32;0.32;;;;;;;;;;7404404;19;20121;-89
2023/03/22 16:33:43;;;;;;;0.35;0.35;;;;;;;;;;7402037;19;20141;-89
2023/03/22 16:36:11;;;;;;;0.40;0.40;;;;;;;;;;7403377;19;20141;-89
2023/03/22 16:38:40;;;;;;;0.95;0.50;;;;;;;;;;7400624;19;20159;-90
2023/03/22 16:41:17;;;;;;;0.30;0.30;;;;;;;;;;7402509;19;20156;-89
2023/03/22 16:43:43;;;;;;;0.40;0.40;;;;;;;;;;7400970;19;20121;-88
2023/03/22 16:46:11;;;;;;;0.30;0.30;;;;;;;;;;7402548;19;20175;-89
2023/03/22 16:48:40;;;;;;;0.30;0.30;;;;;;;;;;7398782;19;20177;-89
2023/03/22 16:51:24;;;;;;;0.40;0.40;;;;;;;;;;7402402;19;20500;-89
2023/03/22 16:53:52;;;;;;;0.30;0.30;;;;;;;;;;7398681;19;20146;-89
2023/03/22 16:56:21;;;;;;;0.40;0.40;;;;;;;;;;7400874;19;20161;-89
2023/03/22 16:58:48;;;;;;;0.40;0.40;;;;;;;;;;7393835;19;20153;-91
2023/03/22 17:01:17;;;;;;;0.40;0.40;;;;;;;;;;7397771;19;20148;-89
2023/03/22 17:03:45;;;;;;;0.30;0.30;;;;;;;;;;7397524;19;20650;-89
2023/03/22 17:06:14;;;;;;;0.30;0.30;;;;;;;;;;7400144;19;20148;-89
2023/03/22 17:08:41;;;;;;;0.35;0.35;;;;;;;;;;7397049;19;20555;-89
2023/03/22 17:11:21;;;;;;;0.30;0.30;;;;;;;;;;7401754;19;20144;-86
2023/03/22 17:13:50;;;;;;;0.40;0.40;;;;;;;;;;7399132;19;20479;-86
2023/03/22 17:16:16;;;;;;;2.60;0.40;;;;;;;;;;7398995;19;20152;-86
2023/03/22 17:18:43;;;;;;;0.30;0.30;;;;;;;;;;7400760;19;20180;-86
2023/03/22 17:21:14;;;;;;;0.30;0.30;;;;;;;;;;7401042;19;20136;-87
2023/03/22 17:23:45;;;;;;;0.40;0.40;;;;;;;;;;7398869;19;20256;-87
2023/03/22 17:26:13;;;;;;;0.30;0.30;;;;;;;;;;7404248;19;20129;-86
2023/03/22 17:28:40;;;;;;;0.30;0.30;;;;;;;;;;7400413;19;20160;-89
2023/03/22 17:31:07;;;;;;;0.30;0.30;;;;;;;;;;7395588;19;20140;-90
2023/03/22 17:33:34;;;;;;;0.70;0.70;;;;;;;;;;7403130;19;20145;-91
2023/03/22 17:36:01;;;;;;;0.45;0.45;;;;;;;;;;7399166;19;20141;-87
2023/03/22 17:38:28;;;;;;;0.43;0.43;;;;;;;;;;7397443;19;20157;-86
2023/03/22 17:41:04;;;;;;;0.30;0.30;;;;;;;;;;7400614;19;20956;-88
2023/03/22 17:43:32;;;;;;;0.60;0.60;;;;;;;;;;7396576;19;20141;-87
2023/03/22 17:45:58;;;;;;;0.43;0.43;;;;;;;;;;7398995;19;20140;-86
2023/03/22 17:48:45;;;;;;;0.40;0.40;;;;;;;;;;7393069;19;20700;-87
2023/03/22 17:51:12;;;;;;;0.52;0.52;;;;;;;;;;7393794;19;20148;-87
2023/03/22 17:53:39;;;;;;;0.35;0.35;;;;;;;;;;7400810;19;20501;-87
2023/03/22 17:56:16;;;;;;;0.30;0.30;;;;;;;;;;7398412;19;20137;-88
2023/03/22 17:59:03;;;;;;;0.40;0.40;;;;;;;;;;7394835;19;20208;-87
2023/03/22 18:01:29;;;;;;;0.40;0.40;;;;;;;;;;7396195;19;20160;-88
2023/03/22 18:03:56;;;;;;;0.30;0.30;;;;;;;;;;7395497;19;20149;-87
2023/03/22 18:06:22;;;;;;;0.40;0.40;;;;;;;;;;7398936;19;20510;-87
2023/03/22 18:08:51;;;;;;;0.60;0.60;;;;;;;;;;7400342;19;20179;-87
2023/03/22 18:11:18;;;;;;;0.30;0.30;;;;;;;;;;7396945;19;20900;-87
2023/03/22 18:13:44;;;;;;;0.57;0.57;;;;;;;;;;7401373;19;20157;-88
2023/03/22 18:16:20;;;;;;;0.30;0.30;;;;;;;;;;7401551;19;20687;-87
2023/03/22 18:19:06;;;;;;;1.92;0.55;;;;;;;;;;7393680;19;20176;-88
2023/03/22 18:21:33;;;;;;;0.40;0.40;;;;;;;;;;7399880;19;20141;-87
2023/03/22 18:24:00;;;;;;;0.47;0.47;;;;;;;;;;7401110;19;20546;-87
2023/03/22 18:26:31;;;;;;;0.50;0.50;;;;;;;;;;7401547;19;20621;-87
2023/03/22 18:29:14;;;;;;;0.45;0.45;;;;;;;;;;7401332;19;20160;-88
2023/03/22 18:31:40;;;;;;;0.30;0.30;;;;;;;;;;7397688;19;20141;-86
2023/03/22 18:34:07;;;;;;;0.43;0.43;;;;;;;;;;7397670;19;20153;-89
2023/03/22 18:36:35;;;;;;;0.60;0.60;;;;;;;;;;7398620;19;20271;-88
2023/03/22 18:39:03;;;;;;;0.40;0.40;;;;;;;;;;7396195;19;20549;-88
2023/03/22 18:41:50;;;;;;;0.30;0.30;;;;;;;;;;7397256;19;20491;-88
2023/03/22 18:44:19;;;;;;;1.38;0.75;;;;;;;;;;7398797;19;20133;-88
2023/03/22 18:46:46;;;;;;;0.30;0.30;;;;;;;;;;7396672;19;20161;-87
2023/03/22 18:49:13;;;;;;;0.43;0.43;;;;;;;;;;7397098;19;20659;-87
2023/03/22 18:51:40;;;;;;;0.40;0.40;;;;;;;;;;7398955;19;21197;-89
2023/03/22 18:54:26;;;;;;;0.37;0.37;;;;;;;;;;7398768;19;20156;-89
2023/03/22 18:56:54;;;;;;;0.40;0.40;;;;;;;;;;7395388;19;20137;-87
2023/03/22 18:59:22;;;;;;;0.50;0.40;;;;;;;;;;7395135;19;20157;-88
2023/03/22 19:01:49;;;;;;;0.30;0.30;;;;;;;;;;7396840;19;20141;-88
2023/03/22 19:04:33;;;;;;;0.37;0.37;;;;;;;;;;7398974;19;20133;-87
2023/03/22 19:07:00;;;;;;;0.37;0.37;;;;;;;;;;7397477;19;20708;-85
2023/03/22 19:09:30;;;;;;;0.43;0.43;;;;;;;;;;7394000;19;20599;-87
2023/03/22 19:11:56;;;;;;;0.30;0.30;;;;;;;;;;7391477;19;20140;-86
2023/03/22 19:14:23;;;;;;;0.30;0.30;;;;;;;;;;7396435;19;20143;-88
2023/03/22 19:17:10;;;;;;;0.40;0.40;;;;;;;;;;7388412;19;20160;-87
2023/03/22 19:19:37;;;;;;;0.50;0.50;;;;;;;;;;7395145;19;20780;-90
2023/03/22 19:22:04;;;;;;;0.60;0.60;;;;;;;;;;7396284;19;20140;-86
2023/03/22 19:24:31;;;;;;;0.40;0.40;;;;;;;;;;7393239;19;20136;-89
2023/03/22 19:27:07;;;;;;;0.30;0.30;;;;;;;;;;7399796;19;20254;-93
2023/03/22 19:29:36;;;;;;;0.97;0.50;;;;;;;;;;7396124;19;20168;-89
2023/03/22 19:32:03;;;;;;;0.50;0.50;;;;;;;;;;7402133;19;20156;-89
2023/03/22 19:34:30;;;;;;;0.40;0.40;;;;;;;;;;7407701;19;20133;-90
2023/03/22 19:36:57;;;;;;;0.40;0.40;;;;;;;;;;7405408;19;20152;-90
2023/03/22 19:39:25;;;;;;;0.50;0.50;;;;;;;;;;7403167;19;20196;-88
2023/03/22 19:41:52;;;;;;;0.30;0.30;;;;;;;;;;7399994;19;20457;-90
2023/03/22 19:44:32;;;;;;;0.50;0.50;;;;;;;;;;7405579;19;20228;-89
2023/03/22 19:46:58;;;;;;;0.30;0.30;;;;;;;;;;7403018;19;20164;-90
2023/03/22 19:49:26;;;;;;;0.50;0.50;;;;;;;;;;7401999;19;20152;-91
2023/03/22 19:51:54;;;;;;;0.90;0.90;;;;;;;;;;7397410;19;20164;-91
2023/03/22 19:54:21;;;;;;;0.40;0.40;;;;;;;;;;7428377;19;20137;-92
2023/03/22 19:57:07;;;;;;;2.40;0.60;;;;;;;;;;7427997;19;20159;-92
2023/03/22 19:59:35;;;;;;;0.50;0.50;;;;;;;;;;7426293;19;20417;-92
2023/03/22 20:02:03;;;;;;;0.40;0.40;;;;;;;;;;7425539;19;20125;-90
2023/03/22 20:04:31;;;;;;;0.60;0.60;;;;;;;;;;7394875;19;20554;-91
2023/03/22 20:06:58;;;;;;;0.70;0.70;;;;;;;;;;7386450;19;20163;-89
2023/03/22 20:09:25;;;;;;;0.50;0.50;;;;;;;;;;7390967;19;20290;-91
2023/03/22 20:11:51;;;;;;;0.50;0.50;;;;;;;;;;7399225;19;20137;-91
2023/03/22 20:14:18;;;;;;;0.40;0.40;;;;;;;;;;7399977;19;20174;-89
2023/03/22 20:16:48;;;;;;;0.40;0.40;;;;;;;;;;7400658;19;20129;-91
2023/03/22 20:19:24;;;;;;;0.47;0.47;;;;;;;;;;7397625;19;20172;-91
2023/03/22 20:22:00;;;;;;;0.50;0.50;;;;;;;;;;7395510;19;20140;-91
2023/03/22 20:24:27;;;;;;;0.47;0.47;;;;;;;;;;7396871;19;20149;-91
2023/03/22 20:26:59;;;;;;;0.70;0.70;;;;;;;;;;7396541;19;20141;-93
2023/03/22 20:29:25;;;;;;;0.70;0.70;;;;;;;;;;7395087;19;20165;-91
2023/03/22 20:31:53;;;;;;;0.77;0.73;;;;;;;;;;7398791;19;20156;-90
2023/03/22 20:34:22;;;;;;;0.97;0.97;;;;;;;;;;7398938;19;20141;-90
2023/03/22 20:36:49;;;;;;;0.63;0.63;;;;;;;;;;7393809;19;20140;-90
2023/03/22 20:39:15;;;;;;;0.63;0.63;;;;;;;;;;7397740;19;20157;-92
2023/03/22 20:41:42;;;;;;;0.70;0.70;;;;;;;;;;7395728;19;20168;-89
2023/03/22 20:44:09;;;;;;;0.77;0.77;;;;;;;;;;7399176;19;20243;-91
2023/03/22 20:46:36;;;;;;;0.47;0.47;;;;;;;;;;7397362;19;20152;-91
2023/03/22 20:49:02;;;;;;;0.50;0.50;;;;;;;;;;7393810;19;20169;-92
2023/03/22 20:51:31;;;;;;;0.33;0.33;;;;;;;;;;7396914;19;20502;-91
2023/03/22 20:53:58;;;;;;;0.40;0.40;;;;;;;;;;7402307;19;20141;-90
2023/03/22 20:56:25;;;;;;;0.80;0.80;;;;;;;;;;7403438;19;20141;-91
2023/03/22 20:58:53;;;;;;;0.77;0.77;;;;;;;;;;7399621;19;20149;-91
2023/03/22 21:01:20;;;;;;;0.53;0.53;;;;;;;;;;7399735;19;20152;-91
2023/03/22 21:03:46;;;;;;;0.63;0.50;;;;;;;;;;7399291;19;20543;-91
2023/03/22 21:06:14;;;;;;;1.53;0.93;;;;;;;;;;7400694;19;20165;-91
2023/03/22 21:08:41;;;;;;;1.23;1.13;;;;;;;;;;7394699;19;20177;-92
2023/03/22 21:11:10;;;;;;;1.33;1.07;;;;;;;;;;7394021;19;20184;-89
2023/03/22 21:13:38;;;;;;;0.30;0.30;;;;;;;;;;7393943;19;20137;-91
2023/03/22 21:16:12;;;;;;;0.63;0.63;;;;;;;;;;7398220;19;20125;-89
2023/03/22 21:18:39;;;;;;;0.50;0.50;;;;;;;;;;7392576;19;20239;-92
2023/03/22 21:21:07;;;;;;;0.40;0.40;;;;;;;;;;7395537;19;20141;-90
2023/03/22 21:23:34;;;;;;;0.60;0.60;;;;;;;;;;7394521;19;20613;-91
2023/03/22 21:26:01;;;;;;;0.67;0.47;;;;;;;;;;7396449;19;20145;-91
2023/03/22 21:28:31;;;;;;;0.70;0.70;;;;;;;;;;7394750;19;20200;-92
2023/03/22 21:31:03;;;;;;;0.50;0.50;;;;;;;;;;7397626;19;20156;-92
2023/03/22 21:33:29;;;;;;;0.43;0.43;;;;;;;;;;7391635;19;20129;-93
2023/03/22 21:35:56;;;;;;;0.47;0.47;;;;;;;;;;7393409;19;20597;-92
2023/03/22 21:38:23;;;;;;;0.30;0.30;;;;;;;;;;7393219;19;20209;-92
2023/03/22 21:40:56;;;;;;;0.53;0.53;;;;;;;;;;7394700;19;20144;-91
2023/03/22 21:43:25;;;;;;;0.30;0.30;;;;;;;;;;7394671;19;20133;-92
2023/03/22 21:45:56;;;;;;;0.37;0.37;;;;;;;;;;7396989;19;20176;-91
2023/03/22 21:48:24;;;;;;;0.33;0.33;;;;;;;;;;7398559;19;20272;-91
2023/03/22 21:50:51;;;;;;;0.40;0.40;;;;;;;;;;7392122;19;20149;-93
2023/03/22 21:53:22;;;;;;;0.30;0.30;;;;;;;;;;7397785;19;20137;-91
2023/03/22 21:55:50;;;;;;;0.33;0.33;;;;;;;;;;7395983;19;20141;-93
2023/03/22 21:58:22;;;;;;;0.40;0.40;;;;;;;;;;7396342;19;20149;-91
2023/03/22 22:00:49;;;;;;;0.33;0.33;;;;;;;;;;7395687;19;20137;-94
2023/03/22 22:03:16;;;;;;;1.17;0.87;;;;;;;;;;7394066;19;20129;-90
2023/03/22 22:05:51;;;;;;;0.40;0.40;;;;;;;;;;7393273;19;20252;-93
2023/03/22 22:08:18;;;;;;;0.43;0.43;;;;;;;;;;7392282;19;20167;-90
2023/03/22 22:10:55;;;;;;;0.47;0.47;;;;;;;;;;7397756;19;20137;-92
2023/03/22 22:13:23;;;;;;;0.30;0.30;;;;;;;;;;7394554;19;20141;-92
2023/03/22 22:15:54;;;;;;;0.40;0.40;;;;;;;;;;7392100;19;20168;-92
2023/03/22 22:18:22;;;;;;;0.40;0.40;;;;;;;;;;7395146;19;20185;-91
2023/03/22 22:21:00;;;;;;;0.47;0.47;;;;;;;;;;7392586;19;20160;-92
2023/03/22 22:23:28;;;;;;;0.60;0.60;;;;;;;;;;7392508;19;20133;-91
2023/03/22 22:25:57;;;;;;;0.30;0.30;;;;;;;;;;7392437;19;20506;-92
2023/03/22 22:28:24;;;;;;;0.67;0.67;;;;;;;;;;7391152;19;20145;-90
2023/03/22 22:30:51;;;;;;;2.00;0.70;;;;;;;;;;7392383;19;20137;-92
2023/03/22 22:33:18;;;;;;;0.37;0.37;;;;;;;;;;7390311;19;20137;-91
2023/03/22 22:35:44;;;;;;;0.30;0.30;;;;;;;;;;7391846;19;20144;-92
2023/03/22 22:38:11;;;;;;;0.40;0.40;;;;;;;;;;7402374;19;20180;-89
2023/03/22 22:40:46;;;;;;;0.50;0.50;;;;;;;;;;7395207;19;20145;-90
2023/03/22 22:43:13;;;;;;;0.67;0.67;;;;;;;;;;7398918;19;20174;-88
2023/03/22 22:45:40;;;;;;;0.30;0.30;;;;;;;;;;7398424;19;20173;-89
2023/03/22 22:48:06;;;;;;;0.43;0.43;;;;;;;;;;7399165;19;20540;-90
2023/03/22 22:50:33;;;;;;;0.30;0.30;;;;;;;;;;7398518;19;20144;-90
2023/03/22 22:53:00;;;;;;;0.70;0.70;;;;;;;;;;7399061;19;20153;-88
2023/03/22 22:55:27;;;;;;;0.30;0.30;;;;;;;;;;7399226;19;20671;-89
2023/03/22 22:57:53;;;;;;;0.87;0.60;;;;;;;;;;7401473;19;20512;-89
2023/03/22 23:00:20;;;;;;;0.60;0.60;;;;;;;;;;7397270;19;20637;-90
2023/03/22 23:02:47;;;;;;;0.73;0.73;;;;;;;;;;7404086;19;20177;-87
2023/03/22 23:05:13;;;;;;;0.40;0.40;;;;;;;;;;7403930;19;20152;-88
2023/03/22 23:07:41;;;;;;;0.60;0.40;;;;;;;;;;7401592;19;20133;-89
2023/03/22 23:10:08;;;;;;;0.90;0.90;;;;;;;;;;7401930;19;20176;-89